• Join FlightAware (Why Join?)
  • Login
  • US Flag 
06:55AM EDT


 

Airport Tracker/Info


-or-


 

Live Flight TrackerFlight Track Log ✈ ASQ6115 ✈ 29-Apr-2013 ✈ KMSN - KORD

Flight Track Log - Related Links

Times and Time Zones

All times are in EDT time to prevent confusion due to time zone crossing. See the ASQ6115 flight status page for this flight to view local times or setup timezone preferences in your user account.

Time Position Orientation Groundspeed Altitude Reporting Facility
EDT Latitude Longitude Course Direction KTS MPH feet Rate Location/Type
08:44PM 43.0242 -89.3022 163° South 196 226 6,500  Level Chicago Center
08:45PM 42.9459 -89.2517 164° South  Level FlightAware Approximate
08:45PM 42.9497 -89.2714 163° South 263 303 9,000  Level Chicago Center
08:46PM 42.8824 -89.2324 144° Southeast  Level FlightAware Approximate
08:46PM 42.8717 -89.2378 162° South 289 333 10,900  Level Chicago Center
08:47PM 42.8219 -89.2017 166° South  Level FlightAware Approximate
08:47PM 42.7842 -89.2333 178° South 311 358 11,000  Level Chicago Center
08:48PM 42.7574 -89.1852 170° South  Level FlightAware Approximate
08:48PM 42.7006 -89.2275 177° South 304 350 11,000  Level Chicago Center
08:49PM 42.6871 -89.1571 163° South  Level FlightAware Approximate
08:49PM 42.6067 -89.2206 177° South 292 336 11,000  Level Chicago Center
08:51PM 42.5372 -89.2106 174° South 258 297 11,000  Level Chicago Center
08:52PM 42.5186 -89.1122 104° East 289 333 11,000  Level Chicago Center
08:53PM 42.5172 -89.0058 91° East 284 327 11,000 -120 Level Chicago Center
08:54PM 42.4858 -88.9017 112° Southeast 302 348 10,800 -780 Descending Chicago Center
08:55PM 42.4503 -88.7681 110° East 320 368 9,500 -900 Descending Chicago Center
08:56PM 42.4208 -88.6633 111° Southeast 303 349 9,000 -300 Descending Chicago Center
08:57PM 42.3906 -88.5547 111° Southeast 306 352 9,000  Level Chicago Center
08:58PM 42.3600 -88.4492 111° Southeast 304 350 9,000  Level Chicago Center
08:59PM 42.3253 -88.3442 114° Southeast 307 353 9,000 -360 Level Chicago Center
09:00PM 42.2850 -88.2581 122° Southeast 278 320 8,300 -1,080 Descending Chicago Center
09:01PM 42.2219 -88.1978 145° Southeast 234 269 6,800 -1,320 Descending Chicago Center
09:02PM 42.1797 -88.1467 138° Southeast 213 245 5,600 -1,140 Descending Chicago Center
09:03PM 42.1394 -88.1028 141° Southeast 195 224 4,500 -1,020 Descending Chicago Center
09:04PM 42.1022 -88.0600 140° Southeast 182 209 3,600 -900 Descending Chicago Center